Terminal Aerodrome Forecast
Issued by NWS

Home | Current Version | Previous Version | Graphics & Text | Print | Product List | Glossary On
Versions: 1 2 3 4 5 6 7 8 9 10 11 12 13 14
000
FTUS43 KMPX 211736
TAFRWF
TAF
KRWF 211736Z 2118/2218 15013KT P6SM SCT015 SCT090 BKN250
     FM212000 15014KT P6SM FEW050
     FM220500 13008KT P6SM VCTS BKN090CB
     FM220700 25006KT P6SM SCT150
     FM221400 32007KT P6SM SCT090=

USA.gov is the U.S. government's official web portal to all federal, state and local government web resources and services.